sensor_id;sensor_type;location;lat;lon;timestamp;P1;durP1;ratioP1;P2;durP2;ratioP2
34102;SDS011;20381;54.498;18.206;2023-03-12T00:02:09;3.95;;;2.50;;
34102;SDS011;20381;54.498;18.206;2023-03-12T00:04:36;3.67;;;2.12;;
34102;SDS011;20381;54.498;18.206;2023-03-12T00:07:03;5.43;;;2.33;;
34102;SDS011;20381;54.498;18.206;2023-03-12T00:09:33;3.65;;;2.20;;
34102;SDS011;20381;54.498;18.206;2023-03-12T00:12:01;4.12;;;2.22;;
34102;SDS011;20381;54.498;18.206;2023-03-12T00:14:28;6.78;;;2.83;;
34102;SDS011;20381;54.498;18.206;2023-03-12T00:16:55;4.65;;;2.50;;
34102;SDS011;20381;54.498;18.206;2023-03-12T00:19:27;5.75;;;2.40;;
34102;SDS011;20381;54.498;18.206;2023-03-12T00:21:51;4.17;;;2.10;;
34102;SDS011;20381;54.498;18.206;2023-03-12T00:24:18;5.00;;;1.90;;
34102;SDS011;20381;54.498;18.206;2023-03-12T00:26:48;4.87;;;1.73;;
34102;SDS011;20381;54.498;18.206;2023-03-12T00:29:14;4.60;;;2.10;;
34102;SDS011;20381;54.498;18.206;2023-03-12T00:31:41;6.17;;;2.40;;
34102;SDS011;20381;54.498;18.206;2023-03-12T00:34:11;4.10;;;1.42;;
34102;SDS011;20381;54.498;18.206;2023-03-12T00:36:38;3.55;;;1.75;;
34102;SDS011;20381;54.498;18.206;2023-03-12T00:39:06;5.78;;;1.37;;
34102;SDS011;20381;54.498;18.206;2023-03-12T00:41:32;2.00;;;1.10;;
34102;SDS011;20381;54.498;18.206;2023-03-12T00:43:59;4.17;;;1.02;;
34102;SDS011;20381;54.498;18.206;2023-03-12T00:46:28;4.03;;;1.27;;
34102;SDS011;20381;54.498;18.206;2023-03-12T00:48:55;2.60;;;1.20;;
34102;SDS011;20381;54.498;18.206;2023-03-12T00:51:22;4.42;;;1.20;;
34102;SDS011;20381;54.498;18.206;2023-03-12T00:53:48;2.50;;;1.20;;
34102;SDS011;20381;54.498;18.206;2023-03-12T00:56:15;1.57;;;1.10;;
34102;SDS011;20381;54.498;18.206;2023-03-12T00:58:44;2.08;;;0.93;;
34102;SDS011;20381;54.498;18.206;2023-03-12T01:01:11;2.37;;;0.90;;
34102;SDS011;20381;54.498;18.206;2023-03-12T01:03:38;1.82;;;1.22;;
34102;SDS011;20381;54.498;18.206;2023-03-12T01:06:05;1.32;;;0.72;;
34102;SDS011;20381;54.498;18.206;2023-03-12T01:08:32;1.95;;;0.68;;
34102;SDS011;20381;54.498;18.206;2023-03-12T01:10:58;6.47;;;1.20;;
34102;SDS011;20381;54.498;18.206;2023-03-12T01:13:25;2.58;;;0.68;;
34102;SDS011;20381;54.498;18.206;2023-03-12T01:15:54;1.35;;;0.85;;
34102;SDS011;20381;54.498;18.206;2023-03-12T01:18:20;2.30;;;1.00;;
34102;SDS011;20381;54.498;18.206;2023-03-12T01:20:47;1.55;;;0.70;;
34102;SDS011;20381;54.498;18.206;2023-03-12T01:23:15;1.10;;;0.60;;
34102;SDS011;20381;54.498;18.206;2023-03-12T01:25:41;1.37;;;0.60;;
34102;SDS011;20381;54.498;18.206;2023-03-12T01:28:08;2.53;;;0.60;;
34102;SDS011;20381;54.498;18.206;2023-03-12T01:30:35;1.80;;;0.72;;
34102;SDS011;20381;54.498;18.206;2023-03-12T01:33:05;3.47;;;0.60;;
34102;SDS011;20381;54.498;18.206;2023-03-12T01:35:37;2.95;;;0.75;;
34102;SDS011;20381;54.498;18.206;2023-03-12T01:38:06;2.70;;;0.57;;
34102;SDS011;20381;54.498;18.206;2023-03-12T01:40:39;2.12;;;0.82;;
34102;SDS011;20381;54.498;18.206;2023-03-12T01:49:06;3.77;;;1.10;;
34102;SDS011;20381;54.498;18.206;2023-03-12T01:54:24;1.85;;;0.95;;
34102;SDS011;20381;54.498;18.206;2023-03-12T01:57:01;2.17;;;0.75;;
34102;SDS011;20381;54.498;18.206;2023-03-12T01:59:32;1.57;;;0.65;;
34102;SDS011;20381;54.498;18.206;2023-03-12T02:02:06;2.58;;;0.80;;
34102;SDS011;20381;54.498;18.206;2023-03-12T02:04:37;3.87;;;1.10;;
34102;SDS011;20381;54.498;18.206;2023-03-12T02:07:10;4.80;;;1.02;;
34102;SDS011;20381;54.498;18.206;2023-03-12T02:09:41;3.30;;;0.75;;
34102;SDS011;20381;54.498;18.206;2023-03-12T02:12:13;9.25;;;1.22;;
34102;SDS011;20381;54.498;18.206;2023-03-12T02:14:41;3.00;;;0.90;;
34102;SDS011;20381;54.498;18.206;2023-03-12T02:17:09;3.37;;;1.25;;
34102;SDS011;20381;54.498;18.206;2023-03-12T02:22:16;6.25;;;2.02;;
34102;SDS011;20381;54.498;18.206;2023-03-12T02:24:51;5.25;;;1.05;;
34102;SDS011;20381;54.498;18.206;2023-03-12T02:27:20;5.30;;;1.07;;
34102;SDS011;20381;54.498;18.206;2023-03-12T02:29:48;7.45;;;1.92;;
34102;SDS011;20381;54.498;18.206;2023-03-12T02:32:17;3.87;;;0.95;;
34102;SDS011;20381;54.498;18.206;2023-03-12T02:34:49;5.15;;;1.40;;
34102;SDS011;20381;54.498;18.206;2023-03-12T02:37:17;6.08;;;1.32;;
34102;SDS011;20381;54.498;18.206;2023-03-12T02:39:49;6.62;;;1.40;;
34102;SDS011;20381;54.498;18.206;2023-03-12T02:42:18;7.28;;;1.35;;
34102;SDS011;20381;54.498;18.206;2023-03-12T02:44:47;6.15;;;1.17;;
34102;SDS011;20381;54.498;18.206;2023-03-12T02:47:14;5.72;;;1.05;;
34102;SDS011;20381;54.498;18.206;2023-03-12T02:49:41;7.90;;;1.20;;
34102;SDS011;20381;54.498;18.206;2023-03-12T02:52:07;4.60;;;0.98;;
34102;SDS011;20381;54.498;18.206;2023-03-12T02:54:35;5.28;;;1.17;;
34102;SDS011;20381;54.498;18.206;2023-03-12T02:57:01;4.95;;;1.25;;
34102;SDS011;20381;54.498;18.206;2023-03-12T02:59:33;3.42;;;0.93;;
34102;SDS011;20381;54.498;18.206;2023-03-12T03:02:00;5.95;;;1.10;;
34102;SDS011;20381;54.498;18.206;2023-03-12T03:04:28;8.93;;;1.55;;
34102;SDS011;20381;54.498;18.206;2023-03-12T03:06:58;3.87;;;1.70;;
34102;SDS011;20381;54.498;18.206;2023-03-12T03:09:24;6.83;;;1.50;;
34102;SDS011;20381;54.498;18.206;2023-03-12T03:11:51;8.78;;;2.00;;
34102;SDS011;20381;54.498;18.206;2023-03-12T03:14:18;6.42;;;1.42;;
34102;SDS011;20381;54.498;18.206;2023-03-12T03:16:45;5.80;;;1.98;;
34102;SDS011;20381;54.498;18.206;2023-03-12T03:19:11;6.65;;;1.67;;
34102;SDS011;20381;54.498;18.206;2023-03-12T03:21:38;4.83;;;1.10;;
34102;SDS011;20381;54.498;18.206;2023-03-12T03:24:05;3.60;;;0.82;;
34102;SDS011;20381;54.498;18.206;2023-03-12T03:26:33;2.67;;;1.15;;
34102;SDS011;20381;54.498;18.206;2023-03-12T03:29:00;5.42;;;1.27;;
34102;SDS011;20381;54.498;18.206;2023-03-12T03:31:27;5.50;;;1.50;;
34102;SDS011;20381;54.498;18.206;2023-03-12T03:33:53;6.42;;;1.72;;
34102;SDS011;20381;54.498;18.206;2023-03-12T03:36:20;7.13;;;1.97;;
34102;SDS011;20381;54.498;18.206;2023-03-12T03:38:49;6.85;;;1.50;;
34102;SDS011;20381;54.498;18.206;2023-03-12T03:41:17;6.23;;;1.73;;
34102;SDS011;20381;54.498;18.206;2023-03-12T03:43:45;5.05;;;1.12;;
34102;SDS011;20381;54.498;18.206;2023-03-12T03:46:16;5.70;;;1.40;;
34102;SDS011;20381;54.498;18.206;2023-03-12T03:48:42;3.25;;;1.40;;
34102;SDS011;20381;54.498;18.206;2023-03-12T03:51:09;3.75;;;1.30;;
34102;SDS011;20381;54.498;18.206;2023-03-12T03:56:06;2.77;;;1.20;;
34102;SDS011;20381;54.498;18.206;2023-03-12T03:58:35;5.35;;;1.42;;
34102;SDS011;20381;54.498;18.206;2023-03-12T04:01:03;4.80;;;1.00;;
34102;SDS011;20381;54.498;18.206;2023-03-12T04:03:33;7.28;;;1.05;;
34102;SDS011;20381;54.498;18.206;2023-03-12T04:06:05;7.08;;;1.40;;
34102;SDS011;20381;54.498;18.206;2023-03-12T04:08:30;6.70;;;1.30;;
34102;SDS011;20381;54.498;18.206;2023-03-12T04:11:05;5.12;;;1.32;;
34102;SDS011;20381;54.498;18.206;2023-03-12T04:13:42;5.72;;;1.20;;
34102;SDS011;20381;54.498;18.206;2023-03-12T04:16:10;3.47;;;1.30;;
34102;SDS011;20381;54.498;18.206;2023-03-12T04:18:38;4.33;;;1.40;;
34102;SDS011;20381;54.498;18.206;2023-03-12T04:21:12;7.33;;;1.20;;
34102;SDS011;20381;54.498;18.206;2023-03-12T04:23:38;2.60;;;1.10;;
34102;SDS011;20381;54.498;18.206;2023-03-12T04:26:05;3.25;;;0.82;;
34102;SDS011;20381;54.498;18.206;2023-03-12T04:28:33;3.25;;;0.72;;
34102;SDS011;20381;54.498;18.206;2023-03-12T04:31:02;5.47;;;1.22;;
34102;SDS011;20381;54.498;18.206;2023-03-12T04:33:32;4.53;;;1.17;;
34102;SDS011;20381;54.498;18.206;2023-03-12T04:36:03;5.15;;;1.10;;
34102;SDS011;20381;54.498;18.206;2023-03-12T04:38:31;8.50;;;1.27;;
34102;SDS011;20381;54.498;18.206;2023-03-12T04:43:30;7.67;;;1.42;;
34102;SDS011;20381;54.498;18.206;2023-03-12T04:45:58;5.62;;;1.20;;
34102;SDS011;20381;54.498;18.206;2023-03-12T04:48:26;3.80;;;1.05;;
34102;SDS011;20381;54.498;18.206;2023-03-12T04:50:52;4.25;;;1.40;;
34102;SDS011;20381;54.498;18.206;2023-03-12T04:53:19;8.38;;;1.12;;
34102;SDS011;20381;54.498;18.206;2023-03-12T04:55:46;7.00;;;1.32;;
34102;SDS011;20381;54.498;18.206;2023-03-12T04:58:14;4.47;;;1.30;;
34102;SDS011;20381;54.498;18.206;2023-03-12T05:00:43;4.50;;;1.10;;
34102;SDS011;20381;54.498;18.206;2023-03-12T05:03:10;4.40;;;0.90;;
34102;SDS011;20381;54.498;18.206;2023-03-12T05:05:37;4.90;;;1.10;;
34102;SDS011;20381;54.498;18.206;2023-03-12T05:08:04;3.62;;;1.12;;
34102;SDS011;20381;54.498;18.206;2023-03-12T05:10:31;3.42;;;1.22;;
34102;SDS011;20381;54.498;18.206;2023-03-12T05:12:58;5.55;;;1.30;;
34102;SDS011;20381;54.498;18.206;2023-03-12T05:15:25;5.40;;;1.33;;
34102;SDS011;20381;54.498;18.206;2023-03-12T05:17:52;5.05;;;1.55;;
34102;SDS011;20381;54.498;18.206;2023-03-12T05:20:19;5.92;;;1.77;;
34102;SDS011;20381;54.498;18.206;2023-03-12T05:22:45;5.97;;;2.12;;
34102;SDS011;20381;54.498;18.206;2023-03-12T05:25:12;6.57;;;1.53;;
34102;SDS011;20381;54.498;18.206;2023-03-12T05:27:39;5.50;;;1.10;;
34102;SDS011;20381;54.498;18.206;2023-03-12T05:30:09;5.62;;;1.70;;
34102;SDS011;20381;54.498;18.206;2023-03-12T05:32:37;2.85;;;0.98;;
34102;SDS011;20381;54.498;18.206;2023-03-12T05:35:04;3.83;;;0.80;;
34102;SDS011;20381;54.498;18.206;2023-03-12T05:37:34;5.60;;;1.20;;
34102;SDS011;20381;54.498;18.206;2023-03-12T05:40:02;1.47;;;0.72;;
34102;SDS011;20381;54.498;18.206;2023-03-12T05:42:32;1.70;;;0.50;;
34102;SDS011;20381;54.498;18.206;2023-03-12T05:45:01;1.80;;;0.70;;
34102;SDS011;20381;54.498;18.206;2023-03-12T05:47:31;4.40;;;0.60;;
34102;SDS011;20381;54.498;18.206;2023-03-12T05:50:01;4.42;;;0.60;;
34102;SDS011;20381;54.498;18.206;2023-03-12T05:52:28;1.40;;;0.47;;
34102;SDS011;20381;54.498;18.206;2023-03-12T05:54:54;3.20;;;1.37;;
34102;SDS011;20381;54.498;18.206;2023-03-12T05:57:21;1.37;;;0.53;;
34102;SDS011;20381;54.498;18.206;2023-03-12T05:59:48;2.98;;;0.82;;
34102;SDS011;20381;54.498;18.206;2023-03-12T06:02:14;3.17;;;1.67;;
34102;SDS011;20381;54.498;18.206;2023-03-12T06:04:41;6.17;;;1.15;;
34102;SDS011;20381;54.498;18.206;2023-03-12T06:07:08;4.45;;;0.70;;
34102;SDS011;20381;54.498;18.206;2023-03-12T06:09:36;2.77;;;0.80;;
34102;SDS011;20381;54.498;18.206;2023-03-12T06:12:03;3.50;;;0.77;;
34102;SDS011;20381;54.498;18.206;2023-03-12T06:14:31;6.75;;;1.10;;
34102;SDS011;20381;54.498;18.206;2023-03-12T06:16:58;3.40;;;0.95;;
34102;SDS011;20381;54.498;18.206;2023-03-12T06:19:24;3.17;;;1.20;;
34102;SDS011;20381;54.498;18.206;2023-03-12T06:21:53;3.83;;;0.90;;
34102;SDS011;20381;54.498;18.206;2023-03-12T06:24:19;4.17;;;1.42;;
34102;SDS011;20381;54.498;18.206;2023-03-12T06:26:46;3.17;;;1.00;;
34102;SDS011;20381;54.498;18.206;2023-03-12T06:29:13;3.05;;;1.12;;
34102;SDS011;20381;54.498;18.206;2023-03-12T06:31:39;9.83;;;1.53;;
34102;SDS011;20381;54.498;18.206;2023-03-12T06:34:07;1.57;;;0.60;;
34102;SDS011;20381;54.498;18.206;2023-03-12T06:36:35;3.72;;;0.90;;
34102;SDS011;20381;54.498;18.206;2023-03-12T06:39:02;1.98;;;0.60;;
34102;SDS011;20381;54.498;18.206;2023-03-12T06:41:33;1.90;;;1.00;;
34102;SDS011;20381;54.498;18.206;2023-03-12T06:44:00;7.45;;;0.93;;
34102;SDS011;20381;54.498;18.206;2023-03-12T06:46:30;2.50;;;0.80;;
34102;SDS011;20381;54.498;18.206;2023-03-12T06:48:58;5.33;;;0.78;;
34102;SDS011;20381;54.498;18.206;2023-03-12T06:51:24;2.37;;;0.70;;
34102;SDS011;20381;54.498;18.206;2023-03-12T06:53:51;1.98;;;0.70;;
34102;SDS011;20381;54.498;18.206;2023-03-12T06:56:21;1.07;;;0.50;;
34102;SDS011;20381;54.498;18.206;2023-03-12T06:58:47;8.08;;;1.02;;
34102;SDS011;20381;54.498;18.206;2023-03-12T07:01:16;1.95;;;0.80;;
34102;SDS011;20381;54.498;18.206;2023-03-12T07:03:43;2.77;;;0.80;;
34102;SDS011;20381;54.498;18.206;2023-03-12T07:06:14;3.12;;;0.85;;
34102;SDS011;20381;54.498;18.206;2023-03-12T07:08:44;4.35;;;0.75;;
34102;SDS011;20381;54.498;18.206;2023-03-12T07:11:12;4.80;;;1.37;;
34102;SDS011;20381;54.498;18.206;2023-03-12T07:13:44;3.37;;;1.25;;
34102;SDS011;20381;54.498;18.206;2023-03-12T07:16:10;5.95;;;1.35;;
34102;SDS011;20381;54.498;18.206;2023-03-12T07:18:37;6.25;;;1.20;;
34102;SDS011;20381;54.498;18.206;2023-03-12T07:21:04;4.70;;;1.57;;
34102;SDS011;20381;54.498;18.206;2023-03-12T07:23:31;5.23;;;1.27;;
34102;SDS011;20381;54.498;18.206;2023-03-12T07:25:57;5.28;;;1.22;;
34102;SDS011;20381;54.498;18.206;2023-03-12T07:28:25;4.80;;;1.15;;
34102;SDS011;20381;54.498;18.206;2023-03-12T07:30:52;7.03;;;1.60;;
34102;SDS011;20381;54.498;18.206;2023-03-12T07:33:26;3.67;;;1.40;;
34102;SDS011;20381;54.498;18.206;2023-03-12T07:35:53;5.33;;;1.62;;
34102;SDS011;20381;54.498;18.206;2023-03-12T07:38:20;5.55;;;1.85;;
34102;SDS011;20381;54.498;18.206;2023-03-12T07:40:49;5.45;;;1.50;;
34102;SDS011;20381;54.498;18.206;2023-03-12T07:43:19;4.85;;;1.67;;
34102;SDS011;20381;54.498;18.206;2023-03-12T07:45:51;6.00;;;2.20;;
34102;SDS011;20381;54.498;18.206;2023-03-12T07:48:16;2.45;;;1.00;;
34102;SDS011;20381;54.498;18.206;2023-03-12T07:50:47;5.22;;;1.70;;
34102;SDS011;20381;54.498;18.206;2023-03-12T07:53:14;4.20;;;1.57;;
34102;SDS011;20381;54.498;18.206;2023-03-12T07:55:42;4.35;;;1.20;;
34102;SDS011;20381;54.498;18.206;2023-03-12T07:58:13;7.53;;;1.20;;
34102;SDS011;20381;54.498;18.206;2023-03-12T08:00:40;4.28;;;0.90;;
34102;SDS011;20381;54.498;18.206;2023-03-12T08:03:09;4.10;;;1.00;;
34102;SDS011;20381;54.498;18.206;2023-03-12T08:05:38;7.87;;;1.30;;
34102;SDS011;20381;54.498;18.206;2023-03-12T08:08:09;3.40;;;1.20;;
34102;SDS011;20381;54.498;18.206;2023-03-12T08:10:35;3.85;;;0.95;;
34102;SDS011;20381;54.498;18.206;2023-03-12T08:13:05;4.75;;;1.20;;
34102;SDS011;20381;54.498;18.206;2023-03-12T08:15:31;5.97;;;1.47;;
34102;SDS011;20381;54.498;18.206;2023-03-12T08:17:58;7.20;;;1.62;;
34102;SDS011;20381;54.498;18.206;2023-03-12T08:20:28;2.35;;;1.05;;
34102;SDS011;20381;54.498;18.206;2023-03-12T08:23:00;6.12;;;1.15;;
34102;SDS011;20381;54.498;18.206;2023-03-12T08:25:25;10.00;;;1.40;;
34102;SDS011;20381;54.498;18.206;2023-03-12T08:27:51;5.40;;;1.40;;
34102;SDS011;20381;54.498;18.206;2023-03-12T08:30:18;4.03;;;1.47;;
34102;SDS011;20381;54.498;18.206;2023-03-12T08:32:45;8.33;;;1.98;;
34102;SDS011;20381;54.498;18.206;2023-03-12T08:35:14;2.67;;;1.27;;
34102;SDS011;20381;54.498;18.206;2023-03-12T08:37:41;2.23;;;0.80;;
34102;SDS011;20381;54.498;18.206;2023-03-12T08:40:09;3.10;;;1.00;;
34102;SDS011;20381;54.498;18.206;2023-03-12T08:42:41;4.37;;;1.10;;
34102;SDS011;20381;54.498;18.206;2023-03-12T08:45:09;4.10;;;0.80;;
34102;SDS011;20381;54.498;18.206;2023-03-12T08:47:38;5.17;;;1.00;;
34102;SDS011;20381;54.498;18.206;2023-03-12T08:50:08;2.02;;;1.07;;
34102;SDS011;20381;54.498;18.206;2023-03-12T08:52:37;4.12;;;1.30;;
34102;SDS011;20381;54.498;18.206;2023-03-12T08:55:05;5.10;;;1.52;;
34102;SDS011;20381;54.498;18.206;2023-03-12T08:57:32;3.17;;;1.40;;
34102;SDS011;20381;54.498;18.206;2023-03-12T08:59:59;6.45;;;1.60;;
34102;SDS011;20381;54.498;18.206;2023-03-12T09:02:25;4.87;;;1.80;;
34102;SDS011;20381;54.498;18.206;2023-03-12T09:04:54;5.08;;;1.60;;
34102;SDS011;20381;54.498;18.206;2023-03-12T09:07:20;3.62;;;1.37;;
34102;SDS011;20381;54.498;18.206;2023-03-12T09:09:47;4.97;;;1.50;;
34102;SDS011;20381;54.498;18.206;2023-03-12T09:12:14;5.05;;;1.32;;
34102;SDS011;20381;54.498;18.206;2023-03-12T09:14:40;12.35;;;1.77;;
34102;SDS011;20381;54.498;18.206;2023-03-12T09:17:07;3.22;;;1.30;;
34102;SDS011;20381;54.498;18.206;2023-03-12T09:19:33;4.62;;;1.10;;
34102;SDS011;20381;54.498;18.206;2023-03-12T09:22:04;3.77;;;1.67;;
34102;SDS011;20381;54.498;18.206;2023-03-12T09:24:33;4.20;;;1.42;;
34102;SDS011;20381;54.498;18.206;2023-03-12T09:27:03;5.17;;;1.07;;
34102;SDS011;20381;54.498;18.206;2023-03-12T09:29:30;2.12;;;1.47;;
34102;SDS011;20381;54.498;18.206;2023-03-12T09:31:58;6.60;;;1.92;;
34102;SDS011;20381;54.498;18.206;2023-03-12T09:34:26;7.65;;;2.12;;
34102;SDS011;20381;54.498;18.206;2023-03-12T09:36:53;5.17;;;1.60;;
34102;SDS011;20381;54.498;18.206;2023-03-12T09:39:20;3.95;;;1.32;;
34102;SDS011;20381;54.498;18.206;2023-03-12T09:41:49;3.72;;;1.60;;
34102;SDS011;20381;54.498;18.206;2023-03-12T09:44:31;4.03;;;1.50;;
34102;SDS011;20381;54.498;18.206;2023-03-12T09:47:06;2.37;;;1.20;;
34102;SDS011;20381;54.498;18.206;2023-03-12T09:49:46;2.47;;;1.30;;
34102;SDS011;20381;54.498;18.206;2023-03-12T09:52:28;4.03;;;1.45;;
34102;SDS011;20381;54.498;18.206;2023-03-12T09:55:14;4.67;;;1.60;;
34102;SDS011;20381;54.498;18.206;2023-03-12T09:57:48;2.02;;;1.12;;
34102;SDS011;20381;54.498;18.206;2023-03-12T10:00:20;2.33;;;1.37;;
34102;SDS011;20381;54.498;18.206;2023-03-12T10:19:29;4.62;;;1.20;;
34102;SDS011;20381;54.498;18.206;2023-03-12T10:22:25;3.55;;;1.27;;
34102;SDS011;20381;54.498;18.206;2023-03-12T10:27:54;5.17;;;1.87;;
34102;SDS011;20381;54.498;18.206;2023-03-12T10:30:32;3.08;;;1.12;;
34102;SDS011;20381;54.498;18.206;2023-03-12T10:33:01;5.75;;;1.62;;
34102;SDS011;20381;54.498;18.206;2023-03-12T10:35:31;2.42;;;1.45;;
34102;SDS011;20381;54.498;18.206;2023-03-12T10:40:30;3.33;;;1.57;;
34102;SDS011;20381;54.498;18.206;2023-03-12T10:43:00;5.03;;;1.47;;
34102;SDS011;20381;54.498;18.206;2023-03-12T10:45:42;2.87;;;0.82;;
34102;SDS011;20381;54.498;18.206;2023-03-12T10:48:33;4.70;;;0.98;;
34102;SDS011;20381;54.498;18.206;2023-03-12T10:51:04;4.17;;;1.40;;
34102;SDS011;20381;54.498;18.206;2023-03-12T10:53:34;4.75;;;0.90;;
34102;SDS011;20381;54.498;18.206;2023-03-12T10:56:08;8.68;;;1.47;;
34102;SDS011;20381;54.498;18.206;2023-03-12T10:58:39;4.30;;;1.15;;
34102;SDS011;20381;54.498;18.206;2023-03-12T11:03:53;52.45;;;3.17;;
34102;SDS011;20381;54.498;18.206;2023-03-12T11:06:42;2.55;;;1.27;;
34102;SDS011;20381;54.498;18.206;2023-03-12T11:11:55;2.33;;;1.30;;
34102;SDS011;20381;54.498;18.206;2023-03-12T11:14:22;5.87;;;1.45;;
34102;SDS011;20381;54.498;18.206;2023-03-12T11:16:52;3.72;;;1.32;;
34102;SDS011;20381;54.498;18.206;2023-03-12T11:19:27;4.95;;;1.55;;
34102;SDS011;20381;54.498;18.206;2023-03-12T11:22:00;2.52;;;1.10;;
34102;SDS011;20381;54.498;18.206;2023-03-12T11:24:32;3.83;;;1.62;;
34102;SDS011;20381;54.498;18.206;2023-03-12T11:29:52;3.12;;;1.40;;
34102;SDS011;20381;54.498;18.206;2023-03-12T11:32:30;4.35;;;1.30;;
34102;SDS011;20381;54.498;18.206;2023-03-12T11:35:08;3.05;;;1.30;;
34102;SDS011;20381;54.498;18.206;2023-03-12T11:46:11;3.77;;;1.17;;
34102;SDS011;20381;54.498;18.206;2023-03-12T12:00:26;3.02;;;1.10;;
34102;SDS011;20381;54.498;18.206;2023-03-12T12:03:34;3.20;;;1.07;;
34102;SDS011;20381;54.498;18.206;2023-03-12T12:09:09;3.58;;;1.10;;
34102;SDS011;20381;54.498;18.206;2023-03-12T12:14:45;3.40;;;1.32;;
34102;SDS011;20381;54.498;18.206;2023-03-12T12:40:21;3.35;;;1.30;;
34102;SDS011;20381;54.498;18.206;2023-03-12T12:45:37;7.40;;;1.80;;
34102;SDS011;20381;54.498;18.206;2023-03-12T12:51:06;3.52;;;1.25;;
34102;SDS011;20381;54.498;18.206;2023-03-12T12:53:43;4.47;;;1.30;;
34102;SDS011;20381;54.498;18.206;2023-03-12T12:56:40;2.27;;;1.00;;
34102;SDS011;20381;54.498;18.206;2023-03-12T13:02:16;3.45;;;1.40;;
34102;SDS011;20381;54.498;18.206;2023-03-12T13:04:46;3.33;;;1.32;;
34102;SDS011;20381;54.498;18.206;2023-03-12T13:09:49;2.55;;;1.20;;
34102;SDS011;20381;54.498;18.206;2023-03-12T13:15:00;8.65;;;1.27;;
34102;SDS011;20381;54.498;18.206;2023-03-12T13:17:34;4.20;;;1.20;;
34102;SDS011;20381;54.498;18.206;2023-03-12T13:20:23;3.15;;;1.05;;
34102;SDS011;20381;54.498;18.206;2023-03-12T13:28:57;2.67;;;1.00;;
34102;SDS011;20381;54.498;18.206;2023-03-12T13:36:46;5.58;;;1.90;;
34102;SDS011;20381;54.498;18.206;2023-03-12T13:39:29;5.00;;;1.10;;
34102;SDS011;20381;54.498;18.206;2023-03-12T13:42:47;4.12;;;1.00;;
34102;SDS011;20381;54.498;18.206;2023-03-12T13:44:54;4.08;;;0.88;;
34102;SDS011;20381;54.498;18.206;2023-03-12T13:47:22;4.92;;;1.20;;
34102;SDS011;20381;54.498;18.206;2023-03-12T13:49:59;2.98;;;0.93;;
34102;SDS011;20381;54.498;18.206;2023-03-12T13:52:39;2.67;;;0.80;;
34102;SDS011;20381;54.498;18.206;2023-03-12T13:57:56;6.65;;;2.22;;
34102;SDS011;20381;54.498;18.206;2023-03-12T14:00:40;3.12;;;1.12;;
34102;SDS011;20381;54.498;18.206;2023-03-12T14:03:28;2.98;;;1.47;;
34102;SDS011;20381;54.498;18.206;2023-03-12T14:06:13;4.55;;;1.17;;
34102;SDS011;20381;54.498;18.206;2023-03-12T14:11:59;2.37;;;0.98;;
34102;SDS011;20381;54.498;18.206;2023-03-12T14:17:31;9.03;;;1.52;;
34102;SDS011;20381;54.498;18.206;2023-03-12T14:20:04;4.28;;;0.90;;
34102;SDS011;20381;54.498;18.206;2023-03-12T14:22:50;2.30;;;1.57;;
34102;SDS011;20381;54.498;18.206;2023-03-12T14:25:22;3.12;;;1.52;;
34102;SDS011;20381;54.498;18.206;2023-03-12T14:27:55;2.42;;;1.15;;
34102;SDS011;20381;54.498;18.206;2023-03-12T14:30:23;2.75;;;1.17;;
34102;SDS011;20381;54.498;18.206;2023-03-12T14:33:11;5.37;;;1.37;;
34102;SDS011;20381;54.498;18.206;2023-03-12T14:38:27;6.75;;;1.25;;
34102;SDS011;20381;54.498;18.206;2023-03-12T14:41:03;3.60;;;1.07;;
34102;SDS011;20381;54.498;18.206;2023-03-12T14:43:56;4.70;;;1.40;;
34102;SDS011;20381;54.498;18.206;2023-03-12T14:46:32;4.55;;;1.15;;
34102;SDS011;20381;54.498;18.206;2023-03-12T14:48:59;6.20;;;1.35;;
34102;SDS011;20381;54.498;18.206;2023-03-12T14:51:28;5.30;;;1.72;;
34102;SDS011;20381;54.498;18.206;2023-03-12T14:54:00;6.12;;;1.77;;
34102;SDS011;20381;54.498;18.206;2023-03-12T14:56:31;5.80;;;2.10;;
34102;SDS011;20381;54.498;18.206;2023-03-12T14:59:17;7.55;;;1.40;;
34102;SDS011;20381;54.498;18.206;2023-03-12T15:01:48;4.80;;;1.40;;
34102;SDS011;20381;54.498;18.206;2023-03-12T15:04:18;4.72;;;1.15;;
34102;SDS011;20381;54.498;18.206;2023-03-12T15:06:48;6.87;;;1.70;;
34102;SDS011;20381;54.498;18.206;2023-03-12T15:09:22;4.83;;;1.40;;
34102;SDS011;20381;54.498;18.206;2023-03-12T15:12:01;4.20;;;1.65;;
34102;SDS011;20381;54.498;18.206;2023-03-12T15:14:48;5.12;;;1.50;;
34102;SDS011;20381;54.498;18.206;2023-03-12T15:17:27;9.15;;;2.35;;
34102;SDS011;20381;54.498;18.206;2023-03-12T15:19:54;7.70;;;1.77;;
34102;SDS011;20381;54.498;18.206;2023-03-12T15:22:22;4.17;;;1.80;;
34102;SDS011;20381;54.498;18.206;2023-03-12T15:24:52;5.10;;;1.90;;
34102;SDS011;20381;54.498;18.206;2023-03-12T15:29:57;4.85;;;2.30;;
34102;SDS011;20381;54.498;18.206;2023-03-12T15:32:26;6.55;;;2.35;;
34102;SDS011;20381;54.498;18.206;2023-03-12T15:34:55;5.10;;;1.98;;
34102;SDS011;20381;54.498;18.206;2023-03-12T15:39:57;7.35;;;2.33;;
34102;SDS011;20381;54.498;18.206;2023-03-12T15:42:43;8.55;;;1.92;;
34102;SDS011;20381;54.498;18.206;2023-03-12T15:45:17;9.88;;;3.15;;
34102;SDS011;20381;54.498;18.206;2023-03-12T15:47:55;3.10;;;1.35;;
34102;SDS011;20381;54.498;18.206;2023-03-12T15:50:57;4.47;;;1.60;;
34102;SDS011;20381;54.498;18.206;2023-03-12T15:53:06;4.87;;;1.45;;
34102;SDS011;20381;54.498;18.206;2023-03-12T15:58:31;10.25;;;2.58;;
34102;SDS011;20381;54.498;18.206;2023-03-12T16:01:19;3.60;;;1.40;;
34102;SDS011;20381;54.498;18.206;2023-03-12T16:03:43;6.78;;;1.65;;
34102;SDS011;20381;54.498;18.206;2023-03-12T16:06:15;4.03;;;1.42;;
34102;SDS011;20381;54.498;18.206;2023-03-12T16:08:53;7.90;;;1.63;;
34102;SDS011;20381;54.498;18.206;2023-03-12T16:11:22;6.62;;;1.50;;
34102;SDS011;20381;54.498;18.206;2023-03-12T16:16:33;8.95;;;2.30;;
34102;SDS011;20381;54.498;18.206;2023-03-12T16:19:00;8.08;;;2.35;;
34102;SDS011;20381;54.498;18.206;2023-03-12T16:21:29;8.95;;;2.55;;
34102;SDS011;20381;54.498;18.206;2023-03-12T16:24:02;7.10;;;2.98;;
34102;SDS011;20381;54.498;18.206;2023-03-12T16:29:02;6.47;;;2.65;;
34102;SDS011;20381;54.498;18.206;2023-03-12T16:31:30;7.97;;;3.25;;
34102;SDS011;20381;54.498;18.206;2023-03-12T16:33:56;5.53;;;2.58;;
34102;SDS011;20381;54.498;18.206;2023-03-12T16:36:25;9.55;;;3.42;;
34102;SDS011;20381;54.498;18.206;2023-03-12T16:38:52;6.15;;;3.10;;
34102;SDS011;20381;54.498;18.206;2023-03-12T16:41:22;5.95;;;2.95;;
34102;SDS011;20381;54.498;18.206;2023-03-12T16:43:55;6.78;;;3.40;;
34102;SDS011;20381;54.498;18.206;2023-03-12T16:46:25;6.92;;;3.80;;
34102;SDS011;20381;54.498;18.206;2023-03-12T16:48:57;9.20;;;4.30;;
34102;SDS011;20381;54.498;18.206;2023-03-12T16:51:28;12.50;;;4.62;;
34102;SDS011;20381;54.498;18.206;2023-03-12T16:53:57;10.43;;;3.90;;
34102;SDS011;20381;54.498;18.206;2023-03-12T16:56:28;10.25;;;4.55;;
34102;SDS011;20381;54.498;18.206;2023-03-12T16:58:55;9.68;;;5.08;;
34102;SDS011;20381;54.498;18.206;2023-03-12T17:01:26;8.05;;;3.50;;
34102;SDS011;20381;54.498;18.206;2023-03-12T17:04:05;10.15;;;4.50;;
34102;SDS011;20381;54.498;18.206;2023-03-12T17:06:40;11.38;;;4.90;;
34102;SDS011;20381;54.498;18.206;2023-03-12T17:09:15;11.28;;;4.03;;
34102;SDS011;20381;54.498;18.206;2023-03-12T17:11:50;10.80;;;4.35;;
34102;SDS011;20381;54.498;18.206;2023-03-12T17:17:02;10.90;;;3.70;;
34102;SDS011;20381;54.498;18.206;2023-03-12T17:19:40;13.83;;;3.42;;
34102;SDS011;20381;54.498;18.206;2023-03-12T17:22:10;10.95;;;3.87;;